Time;durP1;ratioP1;P1;durP2;ratioP2;P2;SDS_P1;SDS_P2;PMS_P1;PMS_P2;Temp;Humidity;BMP_temperature;BMP_pressure;BME280_temperature;BME280_humidity;BME280_pressure;Samples;Min_cycle;Max_cycle;Signal;HPM_P1;HPM_P2
2022/09/06 00:01:18;;;;;;;2.10;1.33;;;16.00;1.00;;;16.24;44.05;101707.03;4942333;29;20745;-72
2022/09/06 00:03:47;;;;;;;3.30;1.37;;;16.00;1.00;;;16.24;44.16;101698.00;4938032;29;20499;-71
2022/09/06 00:06:20;;;;;;;3.70;1.50;;;16.00;1.00;;;16.09;44.50;101704.59;4932665;29;20427;-72
2022/09/06 00:08:49;;;;;;;3.20;1.63;;;16.00;1.00;;;16.07;44.52;101709.44;4941840;29;20419;-71
2022/09/06 00:11:19;;;;;;;4.50;1.53;;;16.00;1.00;;;15.99;44.70;101703.41;4933559;29;20483;-73
2022/09/06 00:13:48;;;;;;;2.87;1.90;;;15.90;1.00;;;15.98;44.76;101705.28;4945135;28;20481;-72
2022/09/06 00:16:22;;;;;;;1.60;1.27;;;15.80;1.00;;;16.00;44.78;101703.19;4933839;29;20442;-72
2022/09/06 00:18:56;;;;;;;3.40;1.17;;;15.80;1.00;;;16.00;44.60;101700.44;4931618;29;20414;-71
2022/09/06 00:21:28;;;;;;;6.00;1.50;;;15.80;1.00;;;15.95;44.81;101703.00;4936518;29;20500;-72
2022/09/06 00:23:57;;;;;;;1.70;1.17;;;15.80;1.00;;;15.88;44.89;101704.91;4935321;29;20464;-71
2022/09/06 00:26:25;;;;;;;2.40;1.10;;;15.70;1.00;;;15.84;44.94;101698.22;4931590;29;20517;-71
2022/09/06 00:28:54;;;;;;;2.60;1.20;;;15.70;1.00;;;15.80;45.17;101698.88;4934335;29;20419;-72
2022/09/06 00:31:27;;;;;;;1.57;1.00;;;15.60;1.00;;;15.74;45.11;101697.84;4936854;29;20519;-72
2022/09/06 00:33:56;;;;;;;2.03;1.37;;;15.60;1.00;;;15.75;45.31;101695.94;4933872;29;20451;-72
2022/09/06 00:36:25;;;;;;;2.57;1.40;;;15.60;1.00;;;15.70;45.34;101696.59;4935299;29;21970;-71
2022/09/06 00:38:54;;;;;;;1.50;1.00;;;15.60;1.00;;;15.62;45.49;101705.03;4937928;29;20775;-72
2022/09/06 00:41:23;;;;;;;2.60;1.43;;;15.50;1.00;;;15.52;45.88;101699.19;4952627;28;20992;-72
2022/09/06 00:43:53;;;;;;;1.97;1.77;;;15.40;1.00;;;15.58;45.64;101696.47;4935342;29;20442;-73
2022/09/06 00:46:29;;;;;;;2.33;0.97;;;15.40;1.00;;;15.59;45.78;101694.53;4936224;29;20774;-73
2022/09/06 00:49:03;;;;;;;1.70;1.20;;;15.40;1.00;;;15.50;45.93;101702.09;4935618;29;20450;-71
2022/09/06 00:51:35;;;;;;;2.10;1.50;;;15.40;1.00;;;15.55;45.89;101704.22;4935344;29;20471;-73
2022/09/06 00:54:06;;;;;;;2.57;1.30;;;15.40;1.00;;;15.56;45.72;101705.91;4948895;28;20951;-72
2022/09/06 00:56:41;;;;;;;4.23;1.50;;;15.40;1.00;;;15.40;46.17;101700.88;4924393;28;20451;-73
2022/09/06 00:59:10;;;;;;;1.43;1.00;;;15.30;1.00;;;15.44;46.13;101707.59;4924534;29;20471;-71
2022/09/06 01:01:40;;;;;;;2.90;1.30;;;15.30;1.00;;;15.45;46.13;101706.53;4935902;29;20539;-71
2022/09/06 01:04:10;;;;;;;1.57;1.47;;;15.30;1.00;;;15.40;46.13;101712.63;4929208;29;20947;-71
2022/09/06 01:06:57;;;;;;;3.57;1.67;;;15.30;1.00;;;15.37;46.41;101706.78;4934416;29;20454;-72
2022/09/06 01:09:46;;;;;;;1.93;1.57;;;15.20;1.00;;;15.34;46.38;101704.47;4936421;29;20474;-71
2022/09/06 01:12:37;;;;;;;3.90;1.10;;;15.20;1.00;;;15.28;46.60;101691.69;4956360;23;20906;-70
2022/09/06 01:15:22;;;;;;;2.20;1.20;;;15.20;1.00;;;15.26;46.75;101681.00;4950811;28;20523;-69
2022/09/06 01:18:09;;;;;;;1.60;1.33;;;15.10;1.00;;;15.20;46.97;101688.13;4952509;28;20448;-70
2022/09/06 01:20:53;;;;;;;2.73;1.00;;;15.10;1.00;;;15.23;46.76;101689.59;4949304;28;20455;-72
2022/09/06 01:24:24;;;;;;;2.10;1.40;;;15.10;1.00;;;15.15;47.06;101690.66;4948739;28;20451;-69
2022/09/06 01:27:55;;;;;;;2.00;1.20;;;15.00;1.00;;;15.15;47.14;101687.94;4954965;28;20820;-72
2022/09/06 01:30:37;;;;;;;1.83;1.13;;;15.00;1.00;;;15.04;47.40;101685.03;4947373;28;20445;-71
2022/09/06 01:33:14;;;;;;;4.23;1.30;;;14.90;1.00;;;15.11;47.34;101685.84;4947802;28;20421;-72
2022/09/06 01:35:51;;;;;;;4.83;1.20;;;14.90;1.00;;;15.04;47.56;101685.03;4938478;28;20449;-71
2022/09/06 01:38:20;;;;;;;4.40;1.10;;;14.90;1.00;;;15.13;47.28;101691.94;4933624;29;20431;-70
2022/09/06 01:40:49;;;;;;;2.20;1.03;;;14.90;1.00;;;15.20;47.11;101679.94;4932829;29;20439;-71
2022/09/06 01:43:26;;;;;;;2.80;0.97;;;15.00;1.00;;;15.21;47.14;101681.63;4919465;29;20443;-70
2022/09/06 01:46:07;;;;;;;2.37;1.20;;;15.00;1.00;;;15.10;47.30;101682.28;4917819;29;20424;-71
2022/09/06 01:49:01;;;;;;;2.13;1.07;;;15.00;1.00;;;15.16;47.43;101681.44;4936431;29;20629;-71
2022/09/06 01:51:42;;;;;;;3.23;0.93;;;15.00;1.00;;;15.25;46.95;101675.78;4929413;29;20478;-71
2022/09/06 01:54:34;;;;;;;1.70;1.30;;;15.00;1.00;;;15.28;47.12;101675.34;4926698;29;20496;-71
2022/09/06 01:57:22;;;;;;;3.73;1.10;;;15.10;1.00;;;15.23;47.24;101675.97;4927886;29;20457;-72
2022/09/06 02:00:09;;;;;;;3.73;1.00;;;15.00;1.00;;;15.26;47.19;101677.41;4929149;29;20423;-72
2022/09/06 02:02:59;;;;;;;1.57;1.20;;;15.10;1.00;;;15.29;47.14;101677.84;4946107;28;20422;-75
2022/09/06 02:05:37;;;;;;;1.63;1.10;;;15.10;1.00;;;15.29;47.25;101668.84;4931166;29;20437;-72
2022/09/06 02:08:14;;;;;;;2.33;1.40;;;15.10;1.00;;;15.40;47.17;101679.06;4930437;28;20571;-72
2022/09/06 02:10:52;;;;;;;2.10;1.00;;;15.20;1.00;;;15.32;47.14;101680.13;4940058;29;20876;-72
2022/09/06 02:13:26;;;;;;;1.97;1.60;;;15.10;1.00;;;15.39;47.29;101672.78;4932979;29;20535;-71
2022/09/06 02:16:02;;;;;;;1.50;0.80;;;15.20;1.00;;;15.32;47.43;101671.97;4927325;29;20434;-71
2022/09/06 02:18:38;;;;;;;2.70;1.23;;;15.20;1.00;;;15.27;47.54;101668.19;4936418;29;20415;-71
2022/09/06 02:21:11;;;;;;;5.60;1.43;;;15.10;1.00;;;15.25;47.82;101664.88;4919143;29;20899;-71
2022/09/06 02:23:43;;;;;;;3.30;1.40;;;15.10;1.00;;;15.20;47.85;101669.03;4938103;29;20491;-72
2022/09/06 02:26:19;;;;;;;1.60;1.27;;;15.00;1.00;;;15.14;48.19;101678.09;4933204;28;20431;-71
2022/09/06 02:28:49;;;;;;;4.40;1.37;;;15.00;1.00;;;15.06;48.48;101672.84;4938851;29;20777;-73
2022/09/06 02:31:26;;;;;;;1.80;1.20;;;14.90;1.00;;;15.04;48.67;101674.97;4933262;29;20846;-71
2022/09/06 02:33:56;;;;;;;2.97;1.70;;;14.90;1.00;;;15.01;48.98;101674.53;4927535;29;20464;-72
2022/09/06 02:36:26;;;;;;;1.83;1.63;;;14.90;1.30;;;14.95;49.06;101659.91;4938561;29;20437;-72
2022/09/06 02:38:55;;;;;;;2.50;1.37;;;14.80;1.40;;;14.92;49.36;101663.03;4945215;29;20450;-73
2022/09/06 02:41:26;;;;;;;1.93;1.10;;;14.80;1.70;;;14.93;49.53;101655.69;4936358;29;20466;-73
2022/09/06 02:43:55;;;;;;;2.27;2.07;;;14.70;1.90;;;14.86;49.78;101663.91;4933710;29;20466;-72
2022/09/06 02:46:26;;;;;;;11.20;1.87;;;14.70;2.20;;;14.79;50.22;101655.72;4937656;29;20489;-73
2022/09/06 02:48:55;;;;;;;2.33;1.37;;;14.70;2.50;;;14.76;50.21;101671.66;4924985;29;20425;-71
2022/09/06 02:51:24;;;;;;;1.80;1.10;;;14.60;2.70;;;14.76;50.65;101671.66;4936097;28;20442;-71
2022/09/06 02:53:54;;;;;;;2.60;1.13;;;14.60;3.00;;;14.76;50.66;101677.91;4941048;29;20472;-73
2022/09/06 02:56:23;;;;;;;4.13;1.77;;;14.60;3.20;;;14.72;51.07;101681.28;4944847;28;20510;-73
2022/09/06 02:58:52;;;;;;;3.30;2.07;;;14.60;3.40;;;14.66;51.39;101677.53;4935475;29;20927;-72
2022/09/06 03:01:21;;;;;;;1.70;1.20;;;14.60;3.70;;;14.66;51.57;101676.69;4932644;29;20416;-74
2022/09/06 03:03:52;;;;;;;1.80;1.00;;;14.50;3.90;;;14.63;51.78;101671.66;4936667;29;20439;-72
2022/09/06 03:06:22;;;;;;;3.10;1.20;;;14.50;4.20;;;14.68;51.98;101669.13;4941173;28;20420;-73
2022/09/06 03:08:51;;;;;;;2.83;1.20;;;14.50;4.40;;;14.73;51.75;101677.50;4947392;28;20926;-73
2022/09/06 03:11:20;;;;;;;2.60;1.03;;;14.50;4.60;;;14.65;51.94;101662.22;4937948;29;20423;-72
2022/09/06 03:13:49;;;;;;;2.40;1.20;;;14.50;4.70;;;14.63;52.43;101660.75;4936561;29;20466;-72
2022/09/06 03:16:21;;;;;;;1.70;1.37;;;14.50;5.00;;;14.64;52.47;101660.53;4938305;28;20940;-72
2022/09/06 03:18:51;;;;;;;3.00;1.83;;;14.50;5.30;;;14.63;52.71;101660.75;4933203;28;20720;-71
2022/09/06 03:21:21;;;;;;;2.40;1.30;;;14.50;5.40;;;14.60;52.84;101661.19;4930650;29;20429;-72
2022/09/06 03:23:50;;;;;;;2.50;1.70;;;14.40;5.70;;;14.57;52.84;101656.97;4936347;29;20507;-72
2022/09/06 03:26:19;;;;;;;1.93;1.03;;;14.40;5.90;;;14.52;52.98;101654.06;4937394;29;20566;-72
2022/09/06 03:28:49;;;;;;;2.80;1.10;;;14.40;6.10;;;14.45;53.46;101655.09;4936472;29;20444;-71
2022/09/06 03:31:18;;;;;;;1.93;1.10;;;14.30;6.30;;;14.45;53.44;101649.66;4934521;29;20427;-72
2022/09/06 03:33:47;;;;;;;2.30;1.47;;;14.30;6.70;;;14.47;53.56;101650.28;4929588;29;20462;-73
2022/09/06 03:36:18;;;;;;;2.50;1.43;;;14.30;6.80;;;14.42;53.80;101644.63;4938180;29;20502;-71
2022/09/06 03:38:47;;;;;;;2.33;1.30;;;14.30;7.00;;;14.39;53.90;101645.03;4934381;29;20811;-73
2022/09/06 03:41:16;;;;;;;2.03;1.07;;;14.30;7.20;;;14.43;53.93;101644.41;4930809;29;20437;-72
2022/09/06 03:43:45;;;;;;;3.63;1.23;;;14.30;7.40;;;14.42;54.19;101641.91;4959694;28;20501;-70
2022/09/06 03:46:14;;;;;;;2.33;1.33;;;14.30;7.50;;;14.43;54.02;101646.28;4923668;29;20961;-72
2022/09/06 03:48:44;;;;;;;10.67;1.70;;;14.30;7.50;;;14.45;53.90;101644.22;4933554;29;20444;-71
2022/09/06 03:51:13;;;;;;;2.30;1.37;;;14.30;7.70;;;14.52;53.80;101642.34;4927430;29;20502;-71
2022/09/06 03:53:43;;;;;;;3.80;1.40;;;14.30;7.70;;;14.56;53.83;101643.59;4937192;29;20550;-71
2022/09/06 03:56:13;;;;;;;1.57;1.23;;;14.30;7.70;;;14.50;54.10;101649.88;4929197;29;20465;-73
2022/09/06 03:58:42;;;;;;;3.00;1.40;;;14.30;7.90;;;14.50;54.03;101641.69;4934884;29;20453;-72
2022/09/06 04:01:13;;;;;;;5.77;2.30;;;14.30;8.50;;;14.52;54.16;101645.06;4935921;29;20454;-73
2022/09/06 04:03:42;;;;;;;2.87;1.90;;;14.40;8.10;;;14.50;54.14;101650.72;4938160;29;20887;-72
2022/09/06 04:06:11;;;;;;;1.90;1.23;;;14.40;8.20;;;14.57;53.95;101639.81;4931129;29;20442;-74
2022/09/06 04:08:41;;;;;;;2.67;1.60;;;14.30;8.20;;;14.48;54.43;101638.34;4932306;29;20510;-72
2022/09/06 04:11:11;;;;;;;3.53;1.80;;;14.30;8.30;;;14.50;54.35;101649.88;4933738;29;20425;-73
2022/09/06 04:13:41;;;;;;;2.13;1.30;;;14.40;8.40;;;14.46;54.40;101652.19;4932496;29;20558;-72
2022/09/06 04:16:10;;;;;;;4.83;2.00;;;14.30;8.50;;;14.49;54.32;101643.56;4925966;29;20469;-72
2022/09/06 04:18:40;;;;;;;2.23;1.50;;;14.30;8.60;;;14.52;54.39;101636.88;4932810;29;20443;-71
2022/09/06 04:21:09;;;;;;;2.70;1.43;;;14.40;8.80;;;14.49;54.42;101645.47;4927463;29;20444;-72
2022/09/06 04:23:39;;;;;;;2.33;1.50;;;14.30;8.70;;;14.43;54.57;101638.13;4935333;29;20942;-73
2022/09/06 04:26:08;;;;;;;2.27;1.73;;;14.30;9.00;;;14.44;54.70;101637.09;4924769;29;20428;-71
2022/09/06 04:28:42;;;;;;;3.30;1.60;;;14.30;9.10;;;14.44;54.64;101637.09;4941304;29;20447;-71
2022/09/06 04:31:11;;;;;;;2.57;1.90;;;14.30;9.20;;;14.41;54.84;101640.22;4924318;29;20434;-73
2022/09/06 04:33:41;;;;;;;2.00;1.90;;;14.20;9.70;;;14.39;54.91;101642.31;4935830;29;20466;-71
2022/09/06 04:36:13;;;;;;;2.13;1.37;;;14.20;9.40;;;14.43;54.78;101641.69;4928116;29;20443;-73
2022/09/06 04:38:44;;;;;;;4.00;1.97;;;14.30;9.40;;;14.46;54.64;101638.56;4931033;29;20488;-71
2022/09/06 04:41:17;;;;;;;4.17;1.90;;;14.20;9.40;;;14.40;54.82;101638.56;4931014;29;20407;-71
2022/09/06 04:43:48;;;;;;;1.70;1.40;;;14.30;9.60;;;14.43;54.89;101633.50;4932363;29;20960;-72
2022/09/06 04:46:23;;;;;;;3.33;1.60;;;14.20;9.60;;;14.39;55.03;101634.16;4933272;29;20421;-72
2022/09/06 04:48:54;;;;;;;6.83;1.43;;;14.20;9.80;;;14.46;55.05;101630.41;4932472;29;20435;-72
2022/09/06 04:51:25;;;;;;;3.03;1.67;;;14.20;10.00;;;14.44;54.72;101624.31;4937044;29;20466;-74
2022/09/06 04:53:54;;;;;;;4.30;1.90;;;14.20;9.80;;;14.44;54.56;101623.47;4926230;29;21084;-71
2022/09/06 04:56:26;;;;;;;2.13;1.80;;;14.30;9.70;;;14.47;54.62;101623.06;4925245;29;20448;-72
2022/09/06 04:58:57;;;;;;;4.40;1.40;;;14.30;9.80;;;14.57;54.35;101618.03;4929327;29;20507;-73
2022/09/06 05:01:26;;;;;;;3.00;1.63;;;14.30;9.80;;;14.90;53.74;101624.25;4935903;28;20427;-71
2022/09/06 05:03:55;;;;;;;3.80;2.20;;;14.40;9.60;;;14.79;53.53;101614.84;4959649;28;20481;-71
2022/09/06 05:06:26;;;;;;;2.03;1.60;;;14.50;9.10;;;14.92;53.39;101622.16;4957122;29;20437;-71
2022/09/06 05:08:55;;;;;;;1.90;1.40;;;14.60;9.10;;;15.20;52.80;101619.97;4973499;28;20497;-68
2022/09/06 05:11:24;;;;;;;2.60;1.90;;;14.60;8.90;;;15.09;53.05;101617.09;4957429;29;20427;-70
2022/09/06 05:13:53;;;;;;;2.50;1.40;;;14.70;8.80;;;15.09;52.81;101607.03;4965469;28;20446;-69
2022/09/06 05:16:24;;;;;;;5.00;1.60;;;14.70;8.50;;;14.86;53.37;101609.41;4957110;29;20471;-71
2022/09/06 05:18:53;;;;;;;1.90;1.07;;;14.70;8.60;;;14.73;53.79;101603.94;4944622;29;20445;-69
2022/09/06 05:21:22;;;;;;;3.00;1.70;;;14.60;8.80;;;14.71;53.94;101606.06;4958157;29;20491;-71
2022/09/06 05:23:52;;;;;;;3.10;1.60;;;14.50;9.10;;;14.72;53.86;101602.28;4941076;29;20460;-73
2022/09/06 05:26:26;;;;;;;4.23;1.90;;;14.50;9.20;;;14.73;54.02;101607.50;4933084;29;20442;-75
2022/09/06 05:28:55;;;;;;;2.80;1.70;;;14.50;9.30;;;14.76;53.84;101611.72;4930873;29;20417;-71
2022/09/06 05:31:28;;;;;;;2.37;2.17;;;14.50;9.20;;;14.75;53.93;101608.16;4935385;29;20418;-72
2022/09/06 05:33:58;;;;;;;2.63;1.40;;;14.50;9.30;;;14.80;53.66;101607.50;4928493;29;20515;-71
2022/09/06 05:36:29;;;;;;;10.73;1.70;;;14.50;9.20;;;14.86;53.54;101600.38;4932063;29;20423;-71
2022/09/06 05:38:59;;;;;;;2.03;1.20;;;14.60;9.20;;;14.91;53.52;101604.13;4924106;29;20442;-72
2022/09/06 05:41:28;;;;;;;2.17;1.57;;;14.60;9.10;;;14.94;53.17;101603.72;4926042;29;20464;-70
2022/09/06 05:43:57;;;;;;;2.20;1.60;;;14.70;8.80;;;15.04;53.03;101604.09;4929094;29;20785;-72
2022/09/06 05:46:28;;;;;;;2.07;1.23;;;14.80;8.80;;;15.08;52.85;101601.78;4923053;29;20446;-71
2022/09/06 05:49:03;;;;;;;1.80;1.00;;;14.80;8.60;;;15.14;52.76;101612.66;4928904;29;20501;-72
2022/09/06 05:51:32;;;;;;;2.50;1.30;;;14.90;8.60;;;15.28;52.59;101618.06;4925427;29;20795;-70
2022/09/06 05:54:01;;;;;;;5.57;1.50;;;15.00;8.40;;;15.38;52.39;101627.47;4929502;29;20478;-72
2022/09/06 05:56:30;;;;;;;3.90;1.60;;;15.10;8.20;;;15.54;51.94;101621.53;4920066;29;20408;-71
2022/09/06 05:58:59;;;;;;;2.23;1.30;;;15.20;8.20;;;15.62;51.63;101623.19;4933845;29;20420;-73
2022/09/06 06:01:31;;;;;;;3.13;1.57;;;15.30;7.70;;;15.62;51.59;101623.19;4927978;29;20434;-72
2022/09/06 06:04:03;;;;;;;3.50;1.23;;;15.40;7.60;;;15.65;51.50;101625.47;4926190;29;20473;-73
2022/09/06 06:06:34;;;;;;;2.10;1.60;;;15.30;7.50;;;15.67;51.76;101614.34;4930496;29;20505;-73
2022/09/06 06:09:03;;;;;;;2.97;1.80;;;15.40;7.60;;;15.75;51.36;101606.75;4942142;29;20580;-73
2022/09/06 06:11:32;;;;;;;2.70;1.53;;;15.50;7.30;;;15.61;51.28;101614.16;4938402;29;20512;-73
2022/09/06 06:14:03;;;;;;;2.33;1.40;;;15.40;6.90;;;15.66;51.48;101608.06;4936953;29;20468;-72
2022/09/06 06:16:34;;;;;;;3.57;1.20;;;15.40;7.20;;;15.71;51.40;101615.59;4939100;28;20456;-72
2022/09/06 06:19:04;;;;;;;8.63;2.07;;;15.50;7.10;;;15.74;51.25;101605.06;4931930;28;20441;-72
2022/09/06 06:21:34;;;;;;;2.63;1.50;;;15.50;7.10;;;15.78;51.25;101592.66;4928079;29;20535;-71
2022/09/06 06:24:06;;;;;;;4.13;1.50;;;15.50;7.00;;;15.89;50.79;101591.94;4937446;29;20529;-74
2022/09/06 06:26:37;;;;;;;3.53;1.40;;;15.60;6.80;;;15.92;51.14;101597.00;4932425;28;20780;-70
2022/09/06 06:29:08;;;;;;;1.77;1.17;;;15.70;6.80;;;15.97;50.48;101599.06;4928640;29;20507;-72
2022/09/06 06:31:39;;;;;;;2.20;1.27;;;15.70;6.30;;;16.01;50.64;101594.81;4923585;29;20633;-70
2022/09/06 06:34:09;;;;;;;4.50;2.10;;;15.80;6.40;;;16.27;50.17;101599.22;4929390;29;20520;-71
2022/09/06 06:36:38;;;;;;;2.30;1.67;;;16.00;6.30;;;16.40;49.71;101593.66;4934049;29;20582;-73
2022/09/06 06:39:08;;;;;;;2.40;1.87;;;16.10;5.90;;;16.50;49.62;101599.47;4934404;29;20418;-73
2022/09/06 06:41:37;;;;;;;3.40;1.43;;;16.20;5.70;;;16.52;49.63;101586.41;4932899;28;20449;-71
2022/09/06 06:44:26;;;;;;;5.87;1.40;;;16.30;5.70;;;16.83;49.30;101591.81;4919619;29;20470;-72
2022/09/06 06:47:00;;;;;;;2.00;1.40;;;16.40;5.60;;;16.91;48.74;101593.41;4937844;28;20449;-71
2022/09/06 06:49:30;;;;;;;4.60;1.87;;;16.60;5.00;;;16.84;49.14;101595.38;4923582;29;20520;-71
2022/09/06 06:51:59;;;;;;;1.73;1.30;;;16.70;4.90;;;17.16;48.78;101604.25;4928347;29;20418;-71
2022/09/06 06:54:28;;;;;;;3.63;1.90;;;16.70;5.20;;;17.48;47.68;101597.53;4928552;29;20527;-71
2022/09/06 06:56:57;;;;;;;2.07;1.70;;;17.00;4.60;;;17.64;47.43;101598.84;4920712;29;20412;-70
2022/09/06 06:59:26;;;;;;;2.70;1.73;;;17.20;4.20;;;17.75;47.28;101593.41;4924756;28;20524;-71
2022/09/06 07:01:57;;;;;;;3.40;2.50;;;17.40;3.80;;;17.80;46.97;101590.81;4921879;29;20832;-72
2022/09/06 07:04:26;;;;;;;2.30;1.33;;;17.50;3.50;;;17.71;47.00;101586.75;4916819;29;20564;-73
2022/09/06 07:06:57;;;;;;;2.23;1.67;;;17.50;3.00;;;17.84;46.73;101584.88;4927070;29;20434;-73
2022/09/06 07:09:46;;;;;;;3.83;2.33;;;17.50;3.00;;;17.84;46.81;101587.59;4944150;28;20427;-72
2022/09/06 07:12:35;;;;;;;6.33;2.00;;;17.60;2.90;;;17.80;46.91;101574.38;4933595;28;20806;-72
2022/09/06 07:15:05;;;;;;;2.40;1.90;;;17.60;2.90;;;17.61;47.13;101581.00;4930991;29;20466;-74
2022/09/06 07:17:36;;;;;;;4.83;1.93;;;17.50;2.90;;;17.62;47.36;101593.56;4932099;29;20415;-72
2022/09/06 07:20:07;;;;;;;3.07;2.27;;;17.40;3.20;;;17.61;47.14;101600.16;4930456;29;20491;-71
2022/09/06 07:22:40;;;;;;;8.23;2.40;;;17.40;3.30;;;17.63;47.35;101599.88;4926272;29;20411;-73
2022/09/06 07:25:11;;;;;;;2.80;1.90;;;17.40;3.30;;;17.55;47.74;101603.75;4924415;29;20531;-72
2022/09/06 07:27:44;;;;;;;7.03;2.27;;;17.40;3.50;;;17.60;47.93;101593.00;4936010;29;20468;-74
2022/09/06 07:30:19;;;;;;;4.87;2.70;;;17.40;3.70;;;17.73;47.80;101600.19;4919014;29;20524;-71
2022/09/06 07:32:50;;;;;;;5.13;2.23;;;17.40;4.00;;;17.80;47.96;101596.28;4931846;29;20432;-71
2022/09/06 07:35:20;;;;;;;4.10;2.60;;;17.40;4.10;;;17.70;47.96;101598.75;4931518;29;20535;-72
2022/09/06 07:37:53;;;;;;;3.30;2.60;;;17.50;3.90;;;17.84;47.95;101601.28;4931631;29;20663;-71
2022/09/06 07:40:23;;;;;;;4.13;2.47;;;17.50;4.10;;;17.90;47.62;101594.88;4916685;29;20420;-72
2022/09/06 07:42:52;;;;;;;13.90;2.60;;;17.70;4.00;;;17.78;47.96;101603.06;4927662;29;20920;-74
2022/09/06 07:45:21;;;;;;;2.47;2.20;;;17.60;4.00;;;17.86;48.20;101605.47;4944131;29;20530;-71
2022/09/06 07:47:58;;;;;;;9.00;2.57;;;17.60;4.30;;;17.99;47.97;101602.53;4924004;29;20484;-73
2022/09/06 07:50:30;;;;;;;2.70;1.97;;;17.70;4.30;;;17.99;48.00;101605.28;4945625;29;20441;-71
2022/09/06 07:53:17;;;;;;;3.03;2.33;;;17.80;4.00;;;18.04;47.70;101597.19;4935839;29;20419;-72
2022/09/06 07:55:59;;;;;;;3.00;2.20;;;17.80;4.00;;;18.30;47.45;101593.16;4923158;28;20828;-72
2022/09/06 07:58:30;;;;;;;6.30;4.53;;;17.90;4.00;;;18.50;47.29;101588.19;4934674;29;20597;-72
2022/09/06 08:01:28;;;;;;;5.10;4.60;;;18.10;4.10;;;18.75;47.12;101576.19;4928576;29;20444;-71
2022/09/06 08:04:02;;;;;;;5.03;3.60;;;18.30;3.80;;;18.85;46.94;101584.63;4935264;29;20460;-73
2022/09/06 08:06:35;;;;;;;8.30;4.90;;;18.50;3.50;;;18.76;46.97;101586.09;4923232;29;20520;-72
2022/09/06 08:09:24;;;;;;;6.20;3.17;;;18.40;3.50;;;18.80;46.90;101581.78;4935190;29;20423;-73
2022/09/06 08:11:54;;;;;;;4.83;3.97;;;18.40;3.70;;;18.65;47.36;101583.09;4944168;28;20469;-72
2022/09/06 08:14:23;;;;;;;7.90;3.50;;;18.50;3.50;;;18.47;48.30;101585.94;4940997;29;20515;-73
2022/09/06 08:16:52;;;;;;;8.97;4.90;;;18.30;4.00;;;18.66;47.73;101573.81;4940729;29;20437;-72
2022/09/06 08:19:22;;;;;;;3.07;2.67;;;18.40;4.40;;;18.81;47.75;101580.72;4941353;29;20445;-72
2022/09/06 08:21:55;;;;;;;2.70;2.30;;;18.40;4.30;;;18.84;47.67;101581.06;4940980;29;20941;-71
2022/09/06 08:24:24;;;;;;;2.83;2.37;;;18.50;4.30;;;18.87;47.78;101574.28;4932333;29;20548;-71
2022/09/06 08:26:53;;;;;;;5.57;2.40;;;18.50;4.60;;;18.88;47.98;101576.75;4930781;29;20512;-72
2022/09/06 08:29:22;;;;;;;3.90;3.10;;;18.60;4.40;;;18.89;48.08;101572.94;4928282;29;20452;-71
2022/09/06 08:31:51;;;;;;;5.77;3.70;;;18.60;4.60;;;18.95;47.97;101579.38;4940450;28;21002;-73
2022/09/06 08:34:22;;;;;;;3.47;2.50;;;18.60;4.60;;;19.12;47.77;101585.81;4931178;29;20483;-71
2022/09/06 08:36:51;;;;;;;5.60;2.93;;;18.70;4.70;;;18.82;48.20;101588.72;4923014;29;20950;-72
2022/09/06 08:39:20;;;;;;;3.60;3.30;;;18.60;4.40;;;18.86;48.43;101583.56;4922195;29;20940;-72
2022/09/06 08:41:57;;;;;;;4.33;3.00;;;18.60;4.80;;;18.96;48.37;101587.38;4933886;29;20499;-73
2022/09/06 08:44:34;;;;;;;4.43;3.17;;;18.60;4.90;;;19.21;48.04;101587.09;4929149;29;20894;-73
2022/09/06 08:47:23;;;;;;;6.73;2.70;;;18.80;5.00;;;18.93;48.22;101589.75;4929395;29;20470;-73
2022/09/06 08:50:00;;;;;;;4.33;2.60;;;18.70;4.40;;;18.87;48.10;101585.25;4944232;29;20456;-72
2022/09/06 08:52:59;;;;;;;3.33;2.70;;;18.70;4.40;;;18.67;48.68;101571.91;4929672;28;20794;-72
2022/09/06 08:55:55;;;;;;;3.67;2.53;;;18.50;4.60;;;18.80;48.68;101573.56;4935176;29;20980;-73
2022/09/06 08:58:53;;;;;;;7.57;3.20;;;18.60;5.20;;;19.06;47.99;101573.03;4925553;29;20475;-73
2022/09/06 09:01:30;;;;;;;4.90;3.20;;;18.70;4.90;;;19.08;47.91;101570.88;4939626;29;20539;-72
2022/09/06 09:04:07;;;;;;;3.03;2.73;;;18.80;4.40;;;19.04;47.85;101569.69;4928693;29;20460;-75
2022/09/06 09:06:39;;;;;;;6.50;3.83;;;18.80;4.20;;;19.25;47.48;101569.06;4934074;29;20411;-74
2022/09/06 09:09:16;;;;;;;3.80;2.53;;;18.90;4.70;;;19.38;47.58;101571.50;4930238;29;20438;-74
2022/09/06 09:11:50;;;;;;;3.63;2.77;;;19.00;4.70;;;19.32;47.33;101569.75;4939185;28;20530;-73
2022/09/06 09:14:26;;;;;;;5.47;2.83;;;19.10;4.10;;;19.27;47.90;101568.78;4934837;29;20487;-72
2022/09/06 09:17:04;;;;;;;4.53;3.53;;;19.00;5.00;;;19.26;47.46;101568.00;4928600;29;20426;-74
2022/09/06 09:19:36;;;;;;;4.27;2.83;;;19.00;4.30;;;19.44;47.47;101561.50;4929600;29;20444;-73
2022/09/06 09:22:07;;;;;;;3.73;2.50;;;19.10;4.50;;;19.53;47.57;101568.25;4930087;29;20427;-74
2022/09/06 09:24:38;;;;;;;4.57;3.40;;;19.20;4.50;;;19.63;47.06;101565.72;4930296;29;20559;-75
2022/09/06 09:27:12;;;;;;;11.40;2.80;;;19.30;4.00;;;19.90;46.85;101560.44;4929947;29;20977;-72
2022/09/06 09:30:01;;;;;;;3.70;2.77;;;19.40;4.20;;;20.00;46.10;101557.84;4922290;29;20423;-73
2022/09/06 09:32:50;;;;;;;6.20;4.07;;;19.60;3.50;;;19.81;46.50;101556.44;4929271;29;20455;-72
2022/09/06 09:35:32;;;;;;;5.43;2.97;;;19.50;3.70;;;20.07;46.08;101542.06;4933497;29;20469;-72
2022/09/06 09:38:10;;;;;;;5.63;2.83;;;19.70;3.50;;;20.39;45.21;101540.41;4937773;29;20877;-72
2022/09/06 09:40:49;;;;;;;5.03;4.27;;;19.90;2.90;;;20.22;45.74;101533.25;4944917;29;20456;-73
2022/09/06 09:43:23;;;;;;;5.10;3.00;;;19.90;2.70;;;20.13;45.57;101534.75;4933992;29;20460;-73
2022/09/06 09:46:15;;;;;;;4.67;3.43;;;19.90;2.60;;;20.45;45.37;101532.25;4944365;29;20437;-72
2022/09/06 09:49:01;;;;;;;4.53;3.17;;;20.00;2.60;;;20.57;44.69;101531.06;4940190;29;20441;-72
2022/09/06 09:51:32;;;;;;;7.83;4.47;;;20.10;2.30;;;20.56;44.79;101523.06;4940665;29;20443;-72
2022/09/06 09:54:06;;;;;;;6.77;3.80;;;20.20;1.80;;;20.37;44.80;101515.09;4939631;29;20520;-70
2022/09/06 09:56:46;;;;;;;14.00;4.97;;;20.10;1.50;;;20.38;45.10;101516.75;4943830;29;20502;-71
2022/09/06 09:59:26;;;;;;;4.37;3.30;;;20.10;1.70;;;20.58;44.50;101515.38;4940528;29;20449;-72
2022/09/06 10:02:00;;;;;;;11.80;3.20;;;20.10;1.90;;;20.54;44.26;101512.31;4941229;29;20448;-74
2022/09/06 10:04:33;;;;;;;8.23;3.50;;;20.20;1.40;;;20.74;44.62;101514.50;4941215;28;20828;-72
2022/09/06 10:07:15;;;;;;;4.47;3.17;;;20.30;1.60;;;21.16;43.42;101510.13;4935250;29;20422;-73
2022/09/06 10:09:49;;;;;;;4.50;2.67;;;20.50;1.40;;;21.29;43.09;101511.66;4927837;29;20446;-74
2022/09/06 10:12:29;;;;;;;6.00;3.20;;;20.80;1.00;;;21.20;43.45;101496.69;4942080;29;20554;-75
2022/09/06 10:14:58;;;;;;;3.87;3.33;;;20.80;1.00;;;20.89;43.86;101503.72;4926860;29;20461;-74
2022/09/06 10:17:37;;;;;;;4.17;3.03;;;20.70;1.00;;;21.00;43.40;101491.75;4919788;29;20449;-74
2022/09/06 10:20:11;;;;;;;3.50;3.10;;;20.70;1.00;;;20.93;43.68;101490.25;4926363;29;20443;-74
2022/09/06 10:22:56;;;;;;;5.47;2.47;;;20.60;1.00;;;21.08;43.43;101499.53;4935009;29;20455;-73
2022/09/06 10:25:45;;;;;;;4.67;2.80;;;20.60;1.00;;;21.08;43.34;101498.72;4930014;29;20484;-73
2022/09/06 10:28:41;;;;;;;5.53;3.37;;;20.70;1.00;;;21.19;43.23;101490.34;4934106;29;20431;-73
2022/09/06 10:31:48;;;;;;;3.00;2.40;;;20.90;1.00;;;21.42;43.15;101496.63;4926686;29;20451;-71
2022/09/06 10:34:57;;;;;;;7.87;3.03;;;20.90;1.00;;;21.60;42.79;101491.59;4932119;29;20464;-75
2022/09/06 10:37:47;;;;;;;6.20;2.87;;;21.00;1.00;;;21.85;42.44;101488.25;4931487;29;20453;-72
2022/09/06 10:40:30;;;;;;;4.30;3.73;;;21.30;1.00;;;21.92;42.00;101488.88;4928299;29;20535;-73
2022/09/06 10:43:04;;;;;;;4.93;3.53;;;21.50;1.00;;;22.01;41.60;101486.47;4924823;29;20508;-74
2022/09/06 10:45:46;;;;;;;4.30;3.30;;;21.50;1.00;;;22.10;41.92;101482.97;4922979;29;20465;-74
2022/09/06 10:48:25;;;;;;;8.40;3.17;;;21.70;1.00;;;22.06;41.64;101473.56;4928986;29;20476;-74
2022/09/06 10:51:00;;;;;;;4.20;2.97;;;21.70;1.00;;;21.82;41.62;101480.50;4918985;29;20452;-73